Airport Name : M R Stefanik

Other Name : Bratislava

ICAO : LZIB

IATA : BTS

FAA :

Latitude : 48.170167

Longitude : 17.212667

Country : Slovakia

Local Date and Time : 1/22/2018 5:03:00 PM

 

TAF (Terminal Aerodrome Forecast)

TAF LZIB 221100Z 2212/2312 12006KT CAVOK BECMG 2214/2216 9999 SCT030 BKN080 BECMG 2218/2220 -SN SCT015 OVC030 TEMPO 2222/2302 3000 SN BKN012 OVC025 PROB30 TEMPO 2302/2308 VRB02KT 1400 -FZRA BR SCT003 BKN006 BECMG 2308/2310 VRB02KT -RA

 

METAR (METeorological Aerodrome Report)

LZIB 221600Z 05006KT CAVOK M01/M03 Q1014 R88/CLRD// NOSIG

LZIB 221530Z 06006KT CAVOK M00/M03 Q1014 R88/CLRD// NOSIG

LZIB 221500Z 07006KT CAVOK M00/M04 Q1014 R88/CLRD// NOSIG

LZIB 221430Z 07006KT CAVOK 00/M04 Q1014 R88/CLRD// NOSIG

LZIB 221400Z 06005KT CAVOK 01/M04 Q1014 R88/CLRD// NOSIG

LZIB 221330Z 09006KT CAVOK 00/M04 Q1014 R88/CLRD// NOSIG

LZIB 221300Z 10006KT 9999 FEW022 00/M05 Q1014 R88/CLRD// NOSIG

LZIB 221230Z 11006KT CAVOK 01/M04 Q1014 R88/CLRD// NOSIG